createdAt,value
2019-03-26T00:02:05.997Z,72.60
2019-03-26T00:04:41.151Z,72.36
2019-03-26T00:07:11.905Z,72.68
2019-03-26T00:09:42.761Z,72.74
2019-03-26T00:12:13.615Z,72.73
2019-03-26T00:14:44.249Z,72.89
2019-03-26T00:17:19.096Z,72.85
2019-03-26T00:19:51.279Z,72.92
2019-03-26T00:22:22.156Z,72.88
2019-03-26T00:24:56.785Z,73.07
2019-03-26T00:27:27.651Z,72.88
2019-03-26T00:29:58.288Z,72.96
2019-03-26T00:32:29.056Z,73.19
2019-03-26T00:34:59.707Z,72.90
2019-03-26T00:37:30.562Z,73.11
2019-03-26T00:40:01.423Z,72.98
2019-03-26T00:42:32.175Z,73.07
2019-03-26T00:45:02.836Z,73.16
2019-03-26T00:47:33.682Z,73.31
2019-03-26T00:50:05.428Z,72.99
2019-03-26T00:52:36.212Z,73.07
2019-03-26T00:55:21.601Z,72.83
2019-03-26T00:57:41.505Z,72.98
2019-03-26T01:00:12.259Z,72.92
2019-03-26T01:02:42.913Z,73.00
2019-03-26T01:05:13.663Z,73.05
2019-03-26T01:07:44.417Z,73.04
2019-03-26T01:10:18.244Z,72.94
2019-03-26T01:12:48.892Z,73.10
2019-03-26T01:15:19.747Z,73.21
2019-03-26T01:17:50.501Z,73.14
2019-03-26T01:20:21.258Z,73.18
2019-03-26T01:22:51.991Z,73.48
2019-03-26T01:25:22.904Z,73.26
2019-03-26T01:27:53.720Z,73.39
2019-03-26T01:30:24.371Z,73.37
2019-03-26T01:32:55.229Z,73.07
2019-03-26T01:35:27.520Z,73.15
2019-03-26T01:37:59.684Z,72.90
2019-03-26T01:40:30.252Z,72.89
2019-03-26T01:43:00.988Z,72.94
2019-03-26T01:45:31.863Z,72.99
2019-03-26T01:48:02.613Z,73.10
2019-03-26T01:50:33.251Z,72.66
2019-03-26T01:53:04.122Z,72.75
2019-03-26T01:55:34.964Z,73.12
2019-03-26T01:58:06.533Z,72.91
2019-03-26T02:00:37.307Z,72.65
2019-03-26T02:03:07.956Z,72.97
2019-03-26T02:05:38.693Z,72.83
2019-03-26T02:08:09.570Z,72.90
2019-03-26T02:10:40.323Z,72.63
2019-03-26T02:13:10.957Z,72.73
2019-03-26T02:15:41.706Z,72.55
2019-03-26T02:18:12.584Z,72.42
2019-03-26T02:20:43.218Z,72.61
2019-03-26T02:23:13.298Z,72.78
2019-03-26T02:25:43.822Z,72.93
2019-03-26T02:28:14.478Z,72.71
2019-03-26T02:30:45.331Z,72.70
2019-03-26T02:33:16.086Z,72.57
2019-03-26T02:35:46.836Z,72.39
2019-03-26T02:38:17.594Z,72.45
2019-03-26T02:40:48.449Z,72.37
2019-03-26T02:43:19.080Z,72.56
2019-03-26T02:45:49.957Z,72.57
2019-03-26T02:48:20.692Z,72.53
2019-03-26T02:50:51.679Z,72.54
2019-03-26T02:53:21.525Z,72.70
2019-03-26T02:55:51.929Z,72.52
2019-03-26T02:58:22.701Z,72.67
2019-03-26T03:00:53.336Z,72.67
2019-03-26T03:03:23.418Z,72.38
2019-03-26T03:05:53.946Z,72.45
2019-03-26T03:08:24.683Z,72.68
2019-03-26T03:10:55.533Z,73.00
2019-03-26T03:13:26.304Z,72.69
2019-03-26T03:15:57.080Z,72.80
2019-03-26T03:18:27.711Z,72.66
2019-03-26T03:20:58.447Z,72.87
2019-03-26T03:23:29.222Z,72.92
2019-03-26T03:25:59.851Z,72.94
2019-03-26T03:28:30.037Z,72.99
2019-03-26T03:31:00.560Z,73.04
2019-03-26T03:33:31.018Z,72.95
2019-03-26T03:36:00.966Z,72.82
2019-03-26T03:38:31.476Z,73.05
2019-03-26T03:41:02.246Z,73.27
2019-03-26T03:43:33.098Z,73.24
2019-03-26T03:46:04.162Z,73.28
2019-03-26T03:48:34.489Z,73.51
2019-03-26T03:51:04.571Z,73.44
2019-03-26T03:53:34.973Z,73.59
2019-03-26T03:56:05.053Z,73.25
2019-03-26T03:58:35.783Z,73.54
2019-03-26T04:01:06.548Z,73.51
2019-03-26T04:03:37.176Z,73.53
2019-03-26T04:06:09.926Z,73.55
2019-03-26T04:08:40.417Z,73.49
2019-03-26T04:11:11.074Z,73.40
2019-03-26T04:13:41.147Z,73.68
2019-03-26T04:16:11.681Z,73.47
2019-03-26T04:18:42.204Z,73.66
2019-03-26T04:21:13.086Z,73.36
2019-03-26T04:23:43.935Z,73.38
2019-03-26T04:26:14.691Z,73.36
2019-03-26T04:28:45.448Z,73.10
2019-03-26T04:31:16.314Z,73.28
2019-03-26T04:33:46.943Z,73.01
2019-03-26T04:36:25.679Z,72.89
2019-03-26T04:38:49.993Z,73.11
2019-03-26T04:41:20.731Z,73.28
2019-03-26T04:43:51.492Z,73.00
2019-03-26T04:46:22.132Z,73.23
2019-03-26T04:48:53.010Z,72.67
2019-03-26T04:51:23.762Z,72.65
2019-03-26T04:53:54.398Z,72.92
2019-03-26T04:56:25.270Z,72.69
2019-03-26T04:58:56.434Z,72.64
2019-03-26T05:01:26.862Z,72.70
2019-03-26T05:03:57.531Z,72.59
2019-03-26T05:06:38.039Z,72.47
2019-03-26T05:09:00.981Z,72.54
2019-03-26T05:11:31.632Z,72.52
2019-03-26T05:14:02.494Z,72.79
2019-03-26T05:16:33.352Z,72.64
2019-03-26T05:19:03.980Z,72.66
2019-03-26T05:21:34.633Z,72.42
2019-03-26T05:24:04.710Z,72.44
2019-03-26T05:26:35.340Z,72.32
2019-03-26T05:29:05.195Z,72.15
2019-03-26T05:31:35.721Z,72.53
2019-03-26T05:34:06.474Z,72.07
2019-03-26T05:36:50.401Z,71.84
2019-03-26T05:39:09.317Z,72.08
2019-03-26T05:41:40.048Z,71.86
2019-03-26T05:44:10.924Z,72.04
2019-03-26T05:46:41.557Z,71.65
2019-03-26T05:49:11.801Z,72.11
2019-03-26T05:51:42.044Z,72.28
2019-03-26T05:54:12.815Z,72.04
2019-03-26T05:56:43.465Z,72.18
2019-03-26T05:59:15.344Z,71.68
2019-03-26T06:01:46.301Z,71.52
2019-03-26T06:04:17.054Z,71.11
2019-03-26T06:06:47.712Z,70.81
2019-03-26T06:09:18.769Z,70.42
2019-03-26T06:11:49.522Z,70.10
2019-03-26T06:14:20.157Z,69.12
2019-03-26T06:16:50.236Z,68.95
2019-03-26T06:19:20.745Z,69.21
2019-03-26T06:21:50.822Z,69.11
2019-03-26T06:24:21.336Z,68.99
2019-03-26T06:26:51.982Z,67.98
2019-03-26T06:29:22.734Z,67.35
2019-03-26T06:31:53.613Z,66.96
2019-03-26T06:34:24.246Z,66.97
2019-03-26T06:36:55.014Z,66.32
2019-03-26T06:39:25.678Z,66.41
2019-03-26T06:41:56.407Z,65.76
2019-03-26T06:44:27.175Z,65.64
2019-03-26T06:46:57.931Z,65.64
2019-03-26T06:49:28.584Z,65.56
2019-03-26T06:51:59.214Z,65.99
2019-03-26T06:54:29.972Z,66.32
2019-03-26T06:57:00.740Z,66.74
2019-03-26T06:59:32.502Z,66.15
2019-03-26T07:02:03.169Z,66.10
2019-03-26T07:04:34.028Z,66.66
2019-03-26T07:07:04.864Z,66.54
2019-03-26T07:09:35.518Z,66.54
2019-03-26T07:12:07.814Z,66.42
2019-03-26T07:14:37.348Z,65.63
2019-03-26T07:17:08.100Z,64.60
2019-03-26T07:19:38.755Z,65.30
2019-03-26T07:22:11.144Z,65.05
2019-03-26T07:24:41.927Z,65.36
2019-03-26T07:27:12.652Z,65.84
2019-03-26T07:29:43.304Z,65.99
2019-03-26T07:32:15.494Z,65.69
2019-03-26T07:34:46.157Z,64.52
2019-03-26T07:37:17.304Z,62.87
2019-03-26T07:39:48.166Z,62.67
2019-03-26T07:42:19.018Z,62.19
2019-03-26T07:44:49.649Z,62.25
2019-03-26T07:47:19.728Z,61.88
2019-03-26T07:49:50.239Z,61.02
2019-03-26T07:52:20.916Z,62.94
2019-03-26T07:54:52.462Z,62.41
2019-03-26T07:57:24.006Z,61.35
2019-03-26T07:59:55.415Z,59.83
2019-03-26T08:02:26.289Z,61.59
2019-03-26T08:04:57.029Z,63.26
2019-03-26T08:07:27.805Z,62.48
2019-03-26T08:09:58.430Z,62.75
2019-03-26T08:12:29.168Z,61.29
2019-03-26T08:15:00.420Z,58.71
2019-03-26T08:17:31.206Z,58.88
2019-03-26T08:20:01.944Z,56.98
2019-03-26T08:22:32.596Z,59.47
2019-03-26T08:25:04.184Z,59.56
2019-03-26T08:27:34.628Z,59.87
2019-03-26T08:30:07.126Z,60.57
2019-03-26T08:32:37.573Z,60.43
2019-03-26T08:35:08.325Z,59.55
2019-03-26T08:37:38.966Z,60.48
2019-03-26T08:40:09.041Z,60.78
2019-03-26T08:42:39.562Z,61.27
2019-03-26T08:45:10.216Z,61.76
2019-03-26T08:47:41.071Z,61.96
2019-03-26T08:50:12.029Z,61.57
2019-03-26T08:52:42.475Z,61.92
2019-03-26T08:55:13.316Z,62.17
2019-03-26T08:57:43.885Z,62.64
2019-03-26T09:00:14.744Z,62.29
2019-03-26T09:02:45.492Z,61.81
2019-03-26T09:05:16.141Z,61.55
2019-03-26T09:07:46.879Z,61.64
2019-03-26T09:10:17.530Z,60.67
2019-03-26T09:12:48.302Z,60.50
2019-03-26T09:15:18.937Z,59.49
2019-03-26T09:17:49.605Z,60.07
2019-03-26T09:20:20.463Z,61.53
2019-03-26T09:22:51.095Z,61.24
2019-03-26T09:25:21.744Z,61.01
2019-03-26T09:27:52.596Z,59.04
2019-03-26T09:30:22.579Z,58.81
2019-03-26T09:32:52.986Z,58.76
2019-03-26T09:35:23.756Z,58.91
2019-03-26T09:37:54.645Z,60.04
2019-03-26T09:40:25.371Z,59.64
2019-03-26T09:42:56.002Z,59.19
2019-03-26T09:45:26.755Z,59.51
2019-03-26T09:47:57.526Z,58.73
2019-03-26T09:50:33.573Z,59.98
2019-03-26T09:53:04.439Z,59.24
2019-03-26T09:55:34.310Z,58.24
2019-03-26T09:58:04.841Z,57.26
2019-03-26T10:00:36.152Z,57.57
2019-03-26T10:03:07.171Z,57.62
2019-03-26T10:05:37.797Z,56.78
2019-03-26T10:08:07.875Z,56.28
2019-03-26T10:10:38.386Z,55.34
2019-03-26T10:13:09.157Z,54.75
2019-03-26T10:15:39.893Z,54.79
2019-03-26T10:18:10.770Z,53.61
2019-03-26T10:20:41.521Z,54.30
2019-03-26T10:23:12.172Z,52.92
2019-03-26T10:25:42.915Z,53.50
2019-03-26T10:28:13.559Z,53.34
2019-03-26T10:30:44.330Z,52.42
2019-03-26T10:33:14.993Z,53.79
2019-03-26T10:35:45.721Z,54.23
2019-03-26T10:38:16.371Z,54.26
2019-03-26T10:40:47.027Z,55.54
2019-03-26T10:43:17.693Z,55.89
2019-03-26T10:45:48.427Z,56.83
2019-03-26T10:48:19.184Z,57.08
2019-03-26T10:50:49.837Z,55.77
2019-03-26T10:53:20.486Z,55.59
2019-03-26T10:55:50.563Z,56.08
2019-03-26T10:58:21.074Z,55.06
2019-03-26T11:00:52.867Z,54.91
2019-03-26T11:03:23.316Z,54.79
2019-03-26T11:05:53.970Z,53.76
2019-03-26T11:08:24.822Z,53.39
2019-03-26T11:10:55.456Z,54.29
2019-03-26T11:13:26.108Z,52.26
2019-03-26T11:15:56.074Z,53.35
2019-03-26T11:18:26.591Z,53.38
2019-03-26T11:21:02.793Z,54.09
2019-03-26T11:23:29.445Z,55.16
2019-03-26T11:26:00.303Z,53.85
2019-03-26T11:28:31.059Z,54.82
2019-03-26T11:31:01.693Z,53.53
2019-03-26T11:33:32.358Z,53.55
2019-03-26T11:36:03.096Z,52.92
2019-03-26T11:38:33.969Z,52.62
2019-03-26T11:41:04.723Z,52.48
2019-03-26T11:43:35.254Z,52.00
2019-03-26T11:46:06.133Z,52.21
2019-03-26T11:48:36.864Z,51.06
2019-03-26T11:51:07.643Z,51.42
2019-03-26T11:53:38.279Z,50.93
2019-03-26T11:56:09.150Z,49.49
2019-03-26T11:58:39.899Z,50.72
2019-03-26T12:01:10.940Z,49.33
2019-03-26T12:03:41.816Z,49.71
2019-03-26T12:06:12.570Z,49.92
2019-03-26T12:08:43.326Z,50.65
2019-03-26T12:11:14.189Z,50.81
2019-03-26T12:13:45.036Z,50.59
2019-03-26T12:16:15.790Z,49.75
2019-03-26T12:18:46.440Z,49.84
2019-03-26T12:21:17.279Z,50.28
2019-03-26T12:23:48.034Z,50.32
2019-03-26T12:26:18.685Z,50.39
2019-03-26T12:28:49.337Z,50.46
2019-03-26T12:31:20.218Z,50.17
2019-03-26T12:33:50.965Z,49.31
2019-03-26T12:36:21.720Z,49.84
2019-03-26T12:38:52.351Z,50.09
2019-03-26T12:41:23.107Z,50.42
2019-03-26T12:43:53.879Z,50.82
2019-03-26T12:46:24.634Z,49.77
2019-03-26T12:48:55.284Z,48.70
2019-03-26T12:51:26.017Z,48.74
2019-03-26T12:53:56.773Z,48.51
2019-03-26T12:56:27.544Z,49.08
2019-03-26T12:58:58.197Z,48.33
2019-03-26T13:01:29.363Z,48.60
2019-03-26T13:04:11.900Z,48.35
2019-03-26T13:06:32.093Z,47.42
2019-03-26T13:09:02.949Z,46.61
2019-03-26T13:11:33.382Z,45.98
2019-03-26T13:14:04.250Z,46.41
2019-03-26T13:16:35.005Z,46.45
2019-03-26T13:19:05.659Z,45.51
2019-03-26T13:21:37.595Z,45.35
2019-03-26T13:24:11.297Z,46.78
2019-03-26T13:26:40.476Z,46.82
2019-03-26T13:29:11.230Z,47.00
2019-03-26T13:31:41.982Z,47.21
2019-03-26T13:34:12.719Z,47.68
2019-03-26T13:36:43.592Z,47.51
2019-03-26T13:39:14.226Z,47.80
2019-03-26T13:41:44.882Z,47.14
2019-03-26T13:44:15.652Z,48.24
2019-03-26T13:46:46.387Z,45.75
2019-03-26T13:49:16.464Z,45.61
2019-03-26T13:51:47.985Z,45.92
2019-03-26T13:54:18.647Z,45.16
2019-03-26T13:56:49.522Z,43.86
2019-03-26T13:59:20.377Z,44.29
2019-03-26T14:01:52.262Z,44.68
2019-03-26T14:04:23.010Z,44.65
2019-03-26T14:06:53.545Z,44.07
2019-03-26T14:09:24.306Z,43.66
2019-03-26T14:11:57.582Z,45.39
2019-03-26T14:14:27.163Z,46.75
2019-03-26T14:16:57.792Z,47.75
2019-03-26T14:19:28.659Z,46.37
2019-03-26T14:21:59.414Z,46.75
2019-03-26T14:24:30.066Z,46.86
2019-03-26T14:27:00.921Z,47.15
2019-03-26T14:29:31.676Z,46.00
2019-03-26T14:32:02.431Z,45.99
2019-03-26T14:34:33.081Z,46.53
2019-03-26T14:37:03.815Z,47.19
2019-03-26T14:39:34.589Z,47.34
2019-03-26T14:42:05.342Z,45.79
2019-03-26T14:44:35.992Z,46.17
2019-03-26T14:47:06.730Z,47.44
2019-03-26T14:49:37.382Z,47.50
2019-03-26T14:52:08.032Z,47.40
2019-03-26T14:54:38.703Z,48.51
2019-03-26T14:57:09.558Z,44.43
2019-03-26T14:59:40.421Z,44.66
2019-03-26T15:02:11.168Z,44.63
2019-03-26T15:04:41.701Z,43.01
2019-03-26T15:07:12.574Z,43.81
2019-03-26T15:09:43.325Z,44.46
2019-03-26T15:12:13.961Z,43.51
2019-03-26T15:14:44.616Z,42.78
2019-03-26T15:17:15.485Z,42.96
2019-03-26T15:19:46.240Z,43.50
2019-03-26T15:22:16.998Z,43.38
2019-03-26T15:24:47.527Z,42.93
2019-03-26T15:27:18.399Z,43.31
2019-03-26T15:29:49.255Z,43.20
2019-03-26T15:32:19.991Z,42.21
2019-03-26T15:34:50.868Z,41.20
2019-03-26T15:37:22.625Z,41.62
2019-03-26T15:39:55.548Z,41.32
2019-03-26T15:42:26.199Z,41.47
2019-03-26T15:44:57.052Z,41.14
2019-03-26T15:47:27.804Z,41.83
2019-03-26T15:49:58.560Z,41.38
2019-03-26T15:52:29.417Z,41.01
2019-03-26T15:55:00.459Z,41.74
2019-03-26T15:57:31.536Z,41.55
2019-03-26T16:00:02.120Z,41.39
2019-03-26T16:02:40.293Z,42.04
2019-03-26T16:05:10.939Z,42.04
2019-03-26T16:07:41.712Z,43.29
2019-03-26T16:10:12.362Z,42.58
2019-03-26T16:12:43.205Z,42.83
2019-03-26T16:15:13.974Z,42.79
2019-03-26T16:17:44.725Z,45.60
2019-03-26T16:20:15.585Z,47.27
2019-03-26T16:22:46.439Z,48.34
2019-03-26T16:25:17.196Z,49.28
2019-03-26T16:27:47.826Z,49.93
2019-03-26T16:30:17.692Z,50.43
2019-03-26T16:32:48.105Z,50.84
2019-03-26T16:35:18.074Z,51.13
2019-03-26T16:37:48.592Z,51.87
2019-03-26T16:40:19.349Z,52.31
2019-03-26T16:42:50.120Z,52.44
2019-03-26T16:45:20.976Z,52.75
2019-03-26T16:47:51.610Z,53.09
2019-03-26T16:50:21.691Z,53.49
2019-03-26T16:52:52.109Z,53.97
2019-03-26T16:55:22.868Z,54.31
2019-03-26T16:57:53.514Z,54.65
2019-03-26T17:00:32.432Z,54.69
2019-03-26T17:03:04.026Z,54.88
2019-03-26T17:05:34.657Z,55.33
2019-03-26T17:08:05.431Z,55.66
2019-03-26T17:10:36.267Z,56.43
2019-03-26T17:13:07.157Z,56.42
2019-03-26T17:15:37.896Z,56.51
2019-03-26T17:18:09.162Z,56.91
2019-03-26T17:20:40.024Z,57.27
2019-03-26T17:23:10.753Z,57.64
2019-03-26T17:25:41.422Z,57.90
2019-03-26T17:28:12.260Z,58.19
2019-03-26T17:30:43.031Z,58.54
2019-03-26T17:33:13.786Z,58.52
2019-03-26T17:35:44.436Z,58.94
2019-03-26T17:38:15.295Z,58.76
2019-03-26T17:40:46.148Z,59.01
2019-03-26T17:43:16.906Z,59.10
2019-03-26T17:45:50.113Z,58.62
2019-03-26T17:48:20.865Z,58.48
2019-03-26T17:50:51.726Z,58.75
2019-03-26T17:53:22.479Z,58.48
2019-03-26T17:55:53.230Z,58.38
2019-03-26T17:58:23.866Z,57.79
2019-03-26T18:00:56.391Z,57.67
2019-03-26T18:03:28.447Z,57.59
2019-03-26T18:06:04.739Z,57.82
2019-03-26T18:08:35.296Z,57.30
2019-03-26T18:11:06.244Z,57.39
2019-03-26T18:13:39.247Z,57.50
2019-03-26T18:16:09.797Z,57.27
2019-03-26T18:18:41.188Z,57.33
2019-03-26T18:21:11.804Z,57.45
2019-03-26T18:23:43.044Z,57.90
2019-03-26T18:26:13.510Z,57.84
2019-03-26T18:28:44.181Z,57.86
2019-03-26T18:31:24.143Z,57.78
2019-03-26T18:34:01.418Z,57.94
2019-03-26T18:36:37.794Z,58.08
2019-03-26T18:39:09.073Z,58.06
2019-03-26T18:41:39.823Z,58.32
2019-03-26T18:44:10.695Z,58.63
2019-03-26T18:46:41.449Z,58.65
2019-03-26T18:49:12.311Z,58.92
2019-03-26T18:51:43.372Z,58.72
2019-03-26T18:54:14.225Z,58.79
2019-03-26T18:56:44.872Z,58.75
2019-03-26T18:59:15.712Z,58.80
2019-03-26T19:01:46.482Z,59.39
2019-03-26T19:04:18.368Z,58.84
2019-03-26T19:06:49.125Z,58.96
2019-03-26T19:09:19.749Z,58.95
2019-03-26T19:11:58.310Z,58.64
2019-03-26T19:14:29.472Z,57.96
2019-03-26T19:16:59.887Z,56.92
2019-03-26T19:19:30.663Z,57.03
2019-03-26T19:22:01.413Z,56.91
2019-03-26T19:24:32.372Z,56.92
2019-03-26T19:27:04.968Z,56.98
